• Join FlightAware (Why Join?)
  • Login
  • US Flag 
11:25AM EDT


 

Airport Tracker/Info


-or-


 

Live Flight TrackerFlight Track Log ✈ N822HA ✈ 30-Jun-2013 ✈ KSAV - KFTY

Flight Track Log - Related Links

Times and Time Zones

All times are in EDT time to prevent confusion due to time zone crossing. See the N822HA flight status page for this flight to view local times or setup timezone preferences in your user account.

Time Position Orientation Groundspeed Altitude Reporting Facility
EDT Latitude Longitude Course Direction KTS MPH feet Rate Location/Type
02:18PM 32.1728 -81.2678 319° Northwest 223 257 2,600  Level Jacksonville Center
02:19PM 32.2175 -81.3333 309° West 248 285 5,100 2,700 Climbing Jacksonville Center
02:20PM 32.2475 -81.3967 299° West 230 265 8,100 2,580 Climbing Jacksonville Center
02:21PM 32.2669 -81.4456 295° West 199 229 10,300 2,160 Climbing Jacksonville Center
02:22PM 32.2844 -81.5189 287° West 199 229 12,500 2,100 Climbing Jacksonville Center
02:23PM 32.2384 -81.6204 287° West  Level FlightAware Approximate
02:23PM 32.3199 -81.5491 287° West  Level Estimated
02:23PM 32.2975 -81.5850 283° West 210 242 14,600  Level Jacksonville Center
02:24PM 32.3169 -81.6486 290° West 215 247 16,400 1,680 Climbing Jacksonville Center
02:26PM 32.3525 -81.8089 285° West 228 262 20,000 1,080 Climbing Atlanta Center
02:27PM 32.3500 -81.9022 268° West 257 296 20,000  Level Atlanta Center
02:28PM 32.3433 -82.0033 266° West 291 335 20,000  Level Atlanta Center
02:29PM 32.3389 -82.1092 267° West 314 361 20,000  Level Atlanta Center
02:30PM 32.3383 -82.2172 270° West 325 374 20,000  Level Atlanta Center
02:31PM 32.3669 -82.3175 289° West 325 374 20,000  Level Atlanta Center
02:33PM 32.4092 -82.4110 298° West  Level FlightAware Approximate
02:33PM 32.4842 -82.4997 298° West 335 386 20,000  Level Atlanta Center
02:34PM 32.5864 -82.4956 North 314 361 20,000  Level Atlanta Center
02:35PM 32.6906 -82.4764 North 335 386 20,000  Level Atlanta Center
02:36PM 32.8094 -82.4594 North 368 423 20,000  Level Atlanta Center
02:37PM 32.9136 -82.4553 North 375 432 20,000  Level Atlanta Center
02:38PM 33.0178 -82.4483 North 375 432 20,000 -720 Level Atlanta Center
02:40PM 32.9932 -82.5618 256° West  Level FlightAware Approximate
02:40PM 33.1983 -82.5269 256° West 340 391 18,000  Level Atlanta Center
02:41PM 33.2331 -82.6258 293° West 311 358 16,100 -1,500 Descending Atlanta Center
02:42PM 33.2528 -82.7272 283° West 303 349 15,100 -960 Descending Atlanta Center
02:43PM 33.2728 -82.8239 284° West 303 349 14,200 -960 Descending Atlanta Center
02:44PM 33.2861 -82.9256 279° West 303 349 13,200 -840 Descending Atlanta Center
02:45PM 33.3078 -83.0247 285° West 308 354 12,600 -540 Descending Atlanta Center
02:46PM 33.3211 -83.1214 279° West 307 353 12,200 -480 Descending Atlanta Center
02:47PM 33.3344 -83.2208 279° West 307 353 11,700 -480 Descending Atlanta Center
02:48PM 33.3456 -83.3178 278° West 302 348 11,300 -300 Descending Atlanta Center
02:49PM 33.3542 -83.4022 277° West 296 341 11,200 -120 Descending Atlanta Center
02:50PM 33.3672 -83.5014 279° West 296 341 11,100 -60 Descending Atlanta Center
02:51PM 33.3822 -83.5983 281° West 296 341 11,100  Level Atlanta Center
02:52PM 33.4075 -83.6931 288° West 296 341 11,100 -300 Level Atlanta Center
02:53PM 33.4828 -83.7400 333° Northwest 278 320 10,500 -720 Descending Atlanta Center
02:54PM 33.5664 -83.7744 341° North 284 327 9,700 -900 Descending Atlanta Center
02:55PM 33.6439 -83.8167 336° Northwest 300 345 8,800 -1,500 Descending Atlanta Center
02:57PM 33.7922 -83.9064 333° Northwest 283 326 5,200 -1,620 Descending Atlanta Center
02:58PM 33.8233 -83.9789 297° West 257 296 4,100 -600 Descending Atlanta Center
02:59PM 33.8150 -84.0614 263° West 232 267 4,000 -60 Descending Atlanta Center
03:01PM 33.8167 -84.1500 271° West 219 252 4,000 -300 Level Atlanta TRACON
03:03PM 33.9875 -84.1500 North  Level FlightAware Approximate
03:05PM 33.8000 -84.4333 231° Southwest 198 228 2,700  Level Atlanta TRACON
03:06PM 33.7833 -84.4833 248° West 152 175 1,800 -1,020 Descending Atlanta TRACON
03:08PM 33.7667 -84.5167 231° Southwest  Level FlightAware Approximate
03:10PM 33.7667 -84.5167 231° Southwest  Level FlightAware Approximate
03:15PM 33.7791 -84.5214 231° Southwest  Level Estimated